Time;durP1;ratioP1;P1;durP2;ratioP2;P2;SDS_P1;SDS_P2;PMS_P1;PMS_P2;Temp;Humidity;BMP_temperature;BMP_pressure;BME280_temperature;BME280_humidity;BME280_pressure;Samples;Min_cycle;Max_cycle;Signal;HPM_P1;HPM_P2
2023/01/15 00:01:24;;;;;;;44.40;20.27;;;5.70;99.90;;;;;;5050790;28;20020;-77
2023/01/15 00:03:53;;;;;;;43.83;22.17;;;5.70;99.90;;;;;;5050828;28;20028;-77
2023/01/15 00:06:19;;;;;;;41.70;21.27;;;5.70;99.90;;;;;;5050976;28;20033;-77
2023/01/15 00:08:45;;;;;;;43.75;21.05;;;5.80;99.90;;;;;;5050526;28;20074;-77
2023/01/15 00:11:11;;;;;;;43.03;21.02;;;5.80;99.90;;;;;;5050548;28;20025;-77
2023/01/15 00:13:37;;;;;;;47.88;20.88;;;5.70;99.90;;;;;;5050304;28;20495;-77
2023/01/15 00:16:18;;;;;;;44.88;20.58;;;5.70;99.90;;;;;;5046240;28;20117;-77
2023/01/15 00:18:54;;;;;;;;;;;5.60;99.90;;;;;;5049088;28;20025;-77
2023/01/15 00:21:20;;;;;;;39.53;18.90;;;5.60;99.90;;;;;;5050640;28;19905;-77
2023/01/15 00:29:16;;;;;;;34.00;15.65;;;5.50;99.90;;;;;;5030796;28;20059;-77
2023/01/15 00:31:50;;;;;;;34.58;16.05;;;5.50;99.90;;;;;;5030110;28;20025;-78
2023/01/15 00:34:15;;;;;;;30.75;14.95;;;5.60;99.90;;;;;;5041833;28;20029;-77
2023/01/15 00:36:41;;;;;;;32.90;16.70;;;5.50;99.90;;;;;;5050779;28;20032;-77
2023/01/15 00:39:07;;;;;;;34.33;17.10;;;5.40;99.90;;;;;;5050308;28;20032;-78
2023/01/15 00:41:32;;;;;;;33.10;15.73;;;5.50;99.90;;;;;;5050610;28;20025;-77
2023/01/15 00:43:58;;;;;;;34.92;17.00;;;5.50;99.90;;;;;;5037801;28;20057;-77
2023/01/15 00:46:24;;;;;;;35.47;17.30;;;5.50;99.90;;;;;;5029128;28;20064;-77
2023/01/15 00:48:50;;;;;;;40.80;17.75;;;5.50;99.90;;;;;;5041995;28;20116;-77
2023/01/15 00:51:15;;;;;;;37.13;18.20;;;5.40;99.90;;;;;;5050594;28;20078;-77
2023/01/15 00:53:41;;;;;;;35.35;16.30;;;5.40;99.90;;;;;;5045713;28;20017;-78
2023/01/15 00:56:07;;;;;;;33.33;16.42;;;5.40;99.90;;;;;;5049667;28;20530;-77
2023/01/15 00:58:33;;;;;;;32.25;15.90;;;5.40;99.90;;;;;;5050691;28;20108;-78
2023/01/15 01:00:59;;;;;;;35.03;16.67;;;5.30;99.90;;;;;;5050208;28;20490;-75
2023/01/15 01:03:26;;;;;;;30.42;15.50;;;5.40;99.90;;;;;;5049974;28;20059;-77
2023/01/15 01:05:52;;;;;;;27.67;15.25;;;5.30;99.90;;;;;;5045297;28;20033;-77
2023/01/15 01:08:19;;;;;;;26.80;14.73;;;5.30;99.90;;;;;;5042230;28;20029;-79
2023/01/15 01:10:44;;;;;;;25.55;13.73;;;5.20;99.90;;;;;;5050196;28;20122;-78
2023/01/15 01:13:10;;;;;;;23.58;13.60;;;5.20;99.90;;;;;;5049721;28;20475;-78
2023/01/15 01:15:37;;;;;;;23.85;13.40;;;4.90;99.90;;;;;;5050244;28;20487;-77
2023/01/15 01:18:04;;;;;;;21.85;12.60;;;5.10;99.90;;;;;;5045703;28;20352;-78
2023/01/15 01:20:30;;;;;;;21.55;11.90;;;5.10;99.90;;;;;;5048092;28;20032;-78
2023/01/15 01:22:56;;;;;;;19.00;11.68;;;5.00;99.90;;;;;;5050488;28;20129;-77
2023/01/15 01:25:22;;;;;;;18.50;10.80;;;5.10;99.90;;;;;;5050026;28;20498;-78
2023/01/15 01:27:48;;;;;;;18.67;11.55;;;5.10;99.90;;;;;;5050306;28;20633;-79
2023/01/15 01:30:14;;;;;;;18.00;11.10;;;5.10;99.90;;;;;;5043070;28;20042;-78
2023/01/15 01:32:43;;;;;;;20.67;10.35;;;5.10;99.90;;;;;;5042146;28;20029;-78
2023/01/15 01:35:09;;;;;;;23.75;12.73;;;5.10;99.90;;;;;;5042719;28;20250;-77
2023/01/15 01:37:35;;;;;;;24.90;12.52;;;5.10;99.90;;;;;;5050153;28;20024;-77
2023/01/15 01:40:01;;;;;;;30.35;15.15;;;5.20;99.90;;;;;;5045549;28;20029;-76
2023/01/15 01:42:26;;;;;;;35.55;16.00;;;5.00;99.90;;;;;;5042231;28;20017;-77
2023/01/15 01:45:02;;;;;;;37.03;17.10;;;5.00;99.90;;;;;;5054170;28;20367;-77
2023/01/15 01:47:30;;;;;;;37.05;17.08;;;5.00;99.90;;;;;;5053795;28;20025;-77
2023/01/15 01:50:09;;;;;;;38.70;18.55;;;5.00;99.90;;;;;;5056091;28;20025;-77
2023/01/15 01:52:55;;;;;;;41.67;19.17;;;5.00;99.90;;;;;;5051218;28;20048;-77
2023/01/15 01:55:22;;;;;;;37.00;19.10;;;5.20;99.90;;;;;;5053099;28;20028;-77
2023/01/15 01:57:51;;;;;;;43.45;21.92;;;4.90;99.90;;;;;;5053441;28;20027;-77
2023/01/15 02:00:18;;;;;;;42.72;20.50;;;4.80;99.90;;;;;;5053621;28;20021;-77
2023/01/15 02:02:46;;;;;;;40.80;20.13;;;5.00;99.90;;;;;;5053483;28;20057;-77
2023/01/15 02:05:25;;;;;;;32.65;17.00;;;5.10;99.90;;;;;;5053393;28;20025;-77
2023/01/15 02:07:51;;;;;;;32.17;16.88;;;5.30;99.90;;;;;;5053120;28;20048;-77
2023/01/15 02:10:17;;;;;;;31.77;16.40;;;5.30;99.90;;;;;;5053246;28;20478;-77
2023/01/15 02:12:51;;;;;;;32.33;15.77;;;5.40;99.90;;;;;;5052531;28;20048;-77
2023/01/15 02:15:25;;;;;;;27.85;14.68;;;5.40;99.90;;;;;;5051845;28;20025;-77
2023/01/15 02:18:09;;;;;;;26.58;14.98;;;5.10;99.90;;;;;;5053098;28;20021;-77
2023/01/15 02:21:02;;;;;;;25.65;13.68;;;5.20;99.90;;;;;;5052864;28;20025;-77
2023/01/15 02:23:36;;;;;;;25.63;14.57;;;5.20;99.90;;;;;;5053369;28;20021;-77
2023/01/15 02:26:17;;;;;;;24.95;13.43;;;5.20;99.90;;;;;;5052721;28;20379;-77
2023/01/15 02:28:47;;;;;;;24.35;13.13;;;5.20;99.90;;;;;;5052979;28;20176;-77
2023/01/15 02:31:37;;;;;;;24.48;13.43;;;5.10;99.90;;;;;;5051063;28;20115;-77
2023/01/15 02:34:19;;;;;;;30.63;15.43;;;4.90;99.90;;;;;;5052379;28;20086;-77
2023/01/15 02:36:47;;;;;;;;;;;5.00;99.90;;;;;;5048391;28;20029;-77
2023/01/15 02:39:16;;;;;;;30.95;15.90;;;4.90;99.90;;;;;;5046204;28;19908;-77
2023/01/15 02:41:47;;;;;;;29.92;14.98;;;4.80;99.90;;;;;;5052123;28;20111;-78
2023/01/15 02:44:16;;;;;;;28.73;15.52;;;4.90;99.90;;;;;;5052610;28;20025;-77
2023/01/15 02:46:42;;;;;;;26.00;14.07;;;4.90;99.90;;;;;;5052645;28;20037;-77
2023/01/15 02:49:12;;;;;;;23.83;13.82;;;4.90;99.90;;;;;;5052251;28;20015;-77
2023/01/15 02:51:51;;;;;;;26.83;14.85;;;4.80;99.90;;;;;;5052248;28;20111;-77
2023/01/15 02:54:19;;;;;;;31.88;16.45;;;4.90;99.90;;;;;;5047438;28;20026;-77
2023/01/15 02:56:47;;;;;;;29.27;16.05;;;4.70;99.90;;;;;;5058814;28;20053;-77
2023/01/15 02:59:23;;;;;;;27.88;14.93;;;4.80;99.90;;;;;;5052417;28;20020;-77
2023/01/15 03:02:02;;;;;;;29.30;15.70;;;4.80;99.90;;;;;;5051802;28;20024;-77
2023/01/15 03:04:39;;;;;;;26.17;14.88;;;4.90;99.90;;;;;;5047300;28;20026;-77
2023/01/15 03:07:20;;;;;;;27.00;15.13;;;4.80;99.90;;;;;;5062524;28;20036;-77
2023/01/15 03:09:48;;;;;;;25.60;13.93;;;4.70;99.90;;;;;;5052194;28;20031;-77
2023/01/15 03:13:03;;;;;;;26.73;14.63;;;4.80;99.90;;;;;;5047508;28;20029;-77
2023/01/15 03:18:46;;;;;;;27.17;14.60;;;4.70;99.90;;;;;;5047937;28;20052;-77
2023/01/15 03:21:19;;;;;;;24.85;14.13;;;4.70;99.90;;;;;;5047315;28;20033;-77
2023/01/15 03:23:50;;;;;;;27.40;14.30;;;4.50;99.90;;;;;;5050860;28;20021;-77
2023/01/15 03:26:16;;;;;;;25.07;13.60;;;4.70;99.90;;;;;;5051794;28;20024;-77
2023/01/15 03:28:43;;;;;;;24.60;13.57;;;4.60;99.90;;;;;;5051637;28;20267;-78
2023/01/15 03:31:09;;;;;;;25.48;14.63;;;4.60;99.90;;;;;;5051610;28;20137;-77
2023/01/15 03:33:35;;;;;;;26.15;14.32;;;4.60;99.90;;;;;;5051528;28;20525;-77
2023/01/15 03:36:01;;;;;;;24.63;13.52;;;4.50;99.90;;;;;;5045035;28;20020;-77
2023/01/15 03:38:34;;;;;;;23.13;13.77;;;4.50;99.90;;;;;;5044079;28;20036;-77
2023/01/15 03:41:19;;;;;;;24.38;13.80;;;4.50;99.90;;;;;;5044331;28;20490;-77
2023/01/15 03:43:57;;;;;;;23.10;13.30;;;4.50;99.90;;;;;;5051375;28;20021;-77
2023/01/15 03:46:34;;;;;;;21.95;12.43;;;4.60;99.90;;;;;;5050833;28;20036;-77
2023/01/15 03:49:15;;;;;;;20.95;11.93;;;4.50;99.90;;;;;;5051477;28;20025;-77
2023/01/15 03:52:21;;;;;;;21.58;12.38;;;4.60;99.90;;;;;;5051463;28;20021;-77
2023/01/15 03:55:18;;;;;;;18.80;12.10;;;4.30;99.90;;;;;;5029020;28;20170;-77
2023/01/15 03:57:59;;;;;;;17.88;10.77;;;4.50;99.90;;;;;;4934661;29;20114;-77
2023/01/15 04:00:29;;;;;;;19.63;10.95;;;4.40;99.90;;;;;;4951030;28;20031;-77
2023/01/15 04:02:56;;;;;;;16.60;11.05;;;4.30;99.90;;;;;;4934712;29;20572;-77
2023/01/15 04:05:24;;;;;;;40.70;14.13;;;4.30;99.90;;;;;;4949554;28;20043;-77
2023/01/15 04:07:51;;;;;;;21.10;11.75;;;4.00;99.90;;;;;;4934927;28;20529;-77
2023/01/15 04:10:17;;;;;;;17.45;11.85;;;4.10;99.90;;;;;;4934756;28;20122;-77
2023/01/15 04:12:43;;;;;;;19.33;11.73;;;4.20;99.90;;;;;;4950135;28;20588;-77
2023/01/15 04:15:11;;;;;;;18.15;10.85;;;4.40;99.90;;;;;;4950378;29;20058;-77
2023/01/15 04:17:37;;;;;;;19.17;10.90;;;4.50;99.90;;;;;;4950929;28;20357;-77
2023/01/15 04:20:03;;;;;;;16.85;10.55;;;4.20;99.90;;;;;;4934508;29;20649;-77
2023/01/15 04:22:29;;;;;;;18.02;11.88;;;4.30;99.90;;;;;;4934489;29;20039;-77
2023/01/15 04:24:55;;;;;;;16.42;9.45;;;4.30;99.90;;;;;;4939298;29;20517;-77
2023/01/15 04:27:21;;;;;;;18.65;11.38;;;4.30;99.90;;;;;;4950545;29;20043;-77
2023/01/15 04:29:47;;;;;;;18.98;11.10;;;4.20;99.90;;;;;;4954871;28;20069;-77
2023/01/15 04:32:13;;;;;;;19.30;11.13;;;4.30;99.90;;;;;;4988789;28;20028;-77
2023/01/15 04:34:39;;;;;;;17.63;10.48;;;4.30;99.90;;;;;;5020960;28;20497;-78
2023/01/15 04:37:04;;;;;;;18.27;10.40;;;4.30;99.90;;;;;;5050730;28;20487;-77
2023/01/15 04:39:31;;;;;;;15.90;9.93;;;4.30;99.90;;;;;;5047665;28;20493;-77
2023/01/15 04:44:40;;;;;;;26.08;13.13;;;4.20;99.90;;;;;;5050549;28;20052;-78
2023/01/15 04:47:06;;;;;;;29.27;13.48;;;3.80;99.90;;;;;;5050289;28;20479;-77
2023/01/15 04:49:33;;;;;;;30.55;14.88;;;4.10;99.90;;;;;;5049962;28;20488;-77
2023/01/15 04:51:59;;;;;;;29.85;14.43;;;3.90;99.90;;;;;;5045613;28;20022;-77
2023/01/15 04:54:24;;;;;;;29.20;14.05;;;4.00;99.90;;;;;;5047074;28;20510;-77
2023/01/15 04:56:52;;;;;;;27.52;13.88;;;3.90;99.90;;;;;;5045761;28;20087;-77
2023/01/15 04:59:24;;;;;;;25.10;12.95;;;4.20;99.90;;;;;;5047946;28;20104;-77
2023/01/15 05:01:51;;;;;;;24.75;12.63;;;4.10;99.90;;;;;;5050503;28;20032;-77
2023/01/15 05:04:16;;;;;;;23.02;12.70;;;4.10;99.90;;;;;;5045565;28;20060;-77
2023/01/15 05:06:42;;;;;;;21.08;11.43;;;4.10;99.90;;;;;;5042634;28;20045;-77
2023/01/15 05:09:08;;;;;;;18.83;11.35;;;4.30;99.90;;;;;;5050408;28;20390;-77
2023/01/15 05:11:35;;;;;;;18.98;10.77;;;4.40;99.90;;;;;;5050300;28;20032;-77
2023/01/15 05:14:01;;;;;;;17.77;9.55;;;4.40;99.90;;;;;;5050399;28;20239;-77
2023/01/15 05:16:28;;;;;;;16.17;10.15;;;4.40;99.90;;;;;;5045818;28;20025;-77
2023/01/15 05:19:01;;;;;;;16.75;9.80;;;4.40;99.90;;;;;;5068540;28;20029;-77
2023/01/15 05:21:32;;;;;;;16.23;8.90;;;4.20;99.90;;;;;;5054212;28;20021;-77
2023/01/15 05:23:59;;;;;;;15.25;8.68;;;4.30;99.90;;;;;;5054138;28;20033;-77
2023/01/15 05:26:27;;;;;;;13.60;8.75;;;4.40;99.90;;;;;;5054268;28;20031;-78
2023/01/15 05:28:54;;;;;;;16.05;9.25;;;4.40;99.90;;;;;;5054127;28;20025;-77
2023/01/15 05:31:21;;;;;;;14.18;8.18;;;4.50;99.90;;;;;;5053981;28;20060;-77
2023/01/15 05:33:47;;;;;;;16.85;7.97;;;4.40;99.90;;;;;;5052616;28;20087;-77
2023/01/15 05:36:16;;;;;;;13.57;8.05;;;4.30;99.90;;;;;;5048388;28;20028;-78
2023/01/15 05:38:42;;;;;;;14.25;8.07;;;4.30;99.90;;;;;;5054138;28;20033;-77
2023/01/15 05:43:58;;;;;;;10.27;7.68;;;4.10;99.90;;;;;;5053546;28;20071;-78
2023/01/15 05:46:24;;;;;;;13.30;7.55;;;4.20;99.90;;;;;;5053375;28;20049;-77
2023/01/15 05:48:50;;;;;;;9.85;6.95;;;4.40;99.90;;;;;;5052222;28;20510;-77
2023/01/15 05:51:15;;;;;;;8.75;6.53;;;4.30;99.90;;;;;;5053573;28;20025;-77
2023/01/15 05:53:41;;;;;;;11.10;6.97;;;4.40;99.90;;;;;;5053673;28;20141;-77
2023/01/15 05:56:07;;;;;;;9.73;6.53;;;4.50;99.90;;;;;;5053858;28;20025;-77
2023/01/15 05:58:33;;;;;;;8.63;6.32;;;4.50;99.90;;;;;;5053552;28;20029;-77
2023/01/15 06:00:59;;;;;;;9.82;6.47;;;4.40;99.90;;;;;;5053454;28;20029;-78
2023/01/15 06:03:26;;;;;;;11.30;6.55;;;4.50;99.90;;;;;;5053441;28;20114;-77
2023/01/15 06:05:53;;;;;;;11.75;6.35;;;4.50;99.90;;;;;;5053522;28;20014;-78
2023/01/15 06:08:19;;;;;;;9.43;6.57;;;4.50;99.90;;;;;;5048944;28;20025;-78
2023/01/15 06:10:46;;;;;;;10.18;6.55;;;4.60;99.90;;;;;;5052025;28;20025;-77
2023/01/15 06:13:12;;;;;;;9.00;6.78;;;4.50;99.90;;;;;;5052864;28;20048;-78
2023/01/15 06:15:38;;;;;;;10.82;7.10;;;4.50;99.90;;;;;;5053689;28;20040;-77
2023/01/15 06:18:04;;;;;;;8.93;5.70;;;4.50;99.90;;;;;;5052935;28;20052;-78
2023/01/15 06:20:30;;;;;;;8.68;5.65;;;4.70;99.90;;;;;;5052877;28;20029;-78
2023/01/15 06:22:55;;;;;;;9.73;6.18;;;4.80;99.90;;;;;;5053556;28;20414;-78
2023/01/15 06:25:21;;;;;;;10.30;7.13;;;4.80;99.90;;;;;;5052845;28;20031;-78
2023/01/15 06:27:48;;;;;;;9.48;6.20;;;4.90;99.90;;;;;;5052616;28;20675;-78
2023/01/15 06:30:14;;;;;;;9.45;6.20;;;4.90;99.90;;;;;;5050555;28;20043;-77
2023/01/15 06:32:40;;;;;;;9.13;6.35;;;5.00;99.90;;;;;;5052758;28;20029;-77
2023/01/15 06:35:06;;;;;;;9.93;6.10;;;5.10;99.90;;;;;;5046377;28;20505;-78
2023/01/15 06:37:32;;;;;;;8.68;6.10;;;5.10;99.90;;;;;;5048179;28;20546;-78
2023/01/15 06:39:58;;;;;;;10.07;5.75;;;5.10;99.90;;;;;;5050594;28;20108;-78
2023/01/15 06:47:55;;;;;;;7.45;4.38;;;6.60;99.90;;;;;;5052469;28;20079;-78
2023/01/15 06:50:21;;;;;;;6.15;4.10;;;6.80;99.90;;;;;;5052377;28;20094;-78
2023/01/15 06:52:46;;;;;;;5.55;4.07;;;6.90;99.90;;;;;;5051081;28;20388;-78
2023/01/15 06:55:12;;;;;;;7.22;4.05;;;7.10;99.90;;;;;;5052509;28;20025;-78
2023/01/15 06:57:39;;;;;;;4.90;3.13;;;7.20;99.90;;;;;;5052182;28;20548;-78
2023/01/15 07:00:06;;;;;;;6.05;2.90;;;7.20;99.90;;;;;;5052491;28;20032;-78
2023/01/15 07:02:32;;;;;;;5.18;3.45;;;7.30;99.90;;;;;;5050852;28;20029;-78
2023/01/15 07:04:58;;;;;;;4.95;3.38;;;7.20;99.90;;;;;;5041467;28;20033;-78
2023/01/15 07:07:23;;;;;;;9.93;3.20;;;7.30;99.90;;;;;;5048349;28;20032;-78
2023/01/15 07:09:49;;;;;;;5.43;2.75;;;7.40;99.90;;;;;;5052039;28;20074;-78
2023/01/15 07:12:16;;;;;;;4.32;2.97;;;7.30;99.90;;;;;;5051797;28;20025;-78
2023/01/15 07:14:41;;;;;;;4.57;2.70;;;7.30;99.90;;;;;;5047263;28;20026;-78
2023/01/15 07:17:08;;;;;;;3.60;2.30;;;7.40;99.90;;;;;;5050061;28;20051;-78
2023/01/15 07:19:33;;;;;;;3.58;1.90;;;7.40;99.90;;;;;;5047390;28;20506;-79
2023/01/15 07:21:59;;;;;;;2.45;1.90;;;7.40;99.90;;;;;;5050307;28;20028;-78
2023/01/15 07:24:25;;;;;;;3.80;1.40;;;7.50;99.90;;;;;;5052201;28;20040;-78
2023/01/15 07:26:50;;;;;;;1.30;1.10;;;7.60;99.90;;;;;;5051880;28;20075;-79
2023/01/15 07:29:16;;;;;;;1.67;1.05;;;7.50;99.90;;;;;;5051578;28;20041;-78
2023/01/15 07:31:42;;;;;;;2.53;1.10;;;7.60;99.90;;;;;;5051892;28;20575;-79
2023/01/15 07:34:08;;;;;;;2.17;1.10;;;7.50;99.90;;;;;;5039943;28;20049;-79
2023/01/15 07:36:33;;;;;;;1.23;1.00;;;7.60;99.90;;;;;;5050417;28;20106;-79
2023/01/15 07:38:59;;;;;;;1.70;1.00;;;7.50;99.90;;;;;;5050092;28;20049;-79
2023/01/15 07:49:44;;;;;;;2.30;0.90;;;7.50;99.90;;;;;;5051689;28;20036;-79
2023/01/15 07:52:20;;;;;;;;;;;7.50;99.90;;;;;;5047239;28;20025;-79
2023/01/15 07:54:48;;;;;;;0.68;0.65;;;7.50;99.90;;;;;;5038946;28;19909;-79
2023/01/15 07:57:20;;;;;;;0.95;0.57;;;7.50;99.90;;;;;;5048186;28;20051;-79
2023/01/15 07:59:46;;;;;;;0.50;0.50;;;7.50;99.90;;;;;;5050847;28;20029;-79
2023/01/15 08:02:12;;;;;;;2.38;0.85;;;7.40;99.90;;;;;;5048338;28;20036;-79
2023/01/15 08:04:39;;;;;;;1.63;0.52;;;7.40;99.90;;;;;;5051142;28;20013;-79
2023/01/15 08:07:05;;;;;;;0.30;0.30;;;7.40;99.90;;;;;;5050860;28;20090;-79
2023/01/15 08:09:31;;;;;;;1.80;0.60;;;7.40;99.90;;;;;;5050802;28;20045;-79
2023/01/15 08:17:32;;;;;;;0.88;0.60;;;7.50;99.90;;;;;;5048266;28;20464;-79
2023/01/15 08:19:58;;;;;;;2.05;0.75;;;7.50;99.90;;;;;;5037144;28;20018;-79
2023/01/15 08:22:23;;;;;;;1.70;0.88;;;7.60;99.90;;;;;;5042160;28;20022;-79
2023/01/15 08:24:49;;;;;;;2.83;1.40;;;7.60;99.90;;;;;;5040480;28;20036;-79
2023/01/15 08:27:15;;;;;;;2.08;1.33;;;7.60;99.90;;;;;;5050877;28;20086;-79
2023/01/15 08:29:41;;;;;;;4.50;2.17;;;7.60;99.90;;;;;;5049194;28;20065;-80
2023/01/15 08:32:06;;;;;;;4.05;2.72;;;7.60;99.90;;;;;;5050251;28;20067;-79
2023/01/15 08:34:32;;;;;;;6.25;3.17;;;7.70;99.90;;;;;;5049550;28;20479;-79
2023/01/15 08:36:59;;;;;;;9.18;4.80;;;7.70;99.90;;;;;;5050208;28;20036;-79
2023/01/15 08:39:26;;;;;;;9.70;5.03;;;7.70;99.90;;;;;;5048785;28;20129;-79
2023/01/15 08:41:52;;;;;;;6.40;3.85;;;7.70;99.90;;;;;;5045442;28;20025;-79
2023/01/15 08:44:20;;;;;;;4.75;2.95;;;7.70;99.90;;;;;;5047788;28;20122;-79
2023/01/15 08:46:46;;;;;;;4.32;3.08;;;7.80;99.90;;;;;;5060514;28;20170;-79
2023/01/15 08:49:12;;;;;;;4.68;3.13;;;7.70;99.90;;;;;;5048281;28;20021;-79
2023/01/15 08:51:38;;;;;;;3.80;2.63;;;7.80;99.90;;;;;;5035876;28;20434;-79
2023/01/15 08:54:04;;;;;;;3.97;2.67;;;7.80;99.90;;;;;;5051817;28;20100;-80
2023/01/15 08:56:29;;;;;;;4.20;3.17;;;7.80;99.90;;;;;;5057528;28;20056;-79
2023/01/15 08:58:55;;;;;;;5.13;3.15;;;7.80;99.90;;;;;;5057287;28;20486;-79
2023/01/15 09:01:20;;;;;;;4.50;2.83;;;7.80;99.90;;;;;;5056858;28;20033;-79
2023/01/15 09:03:46;;;;;;;4.30;2.78;;;7.80;99.90;;;;;;5055263;28;20029;-79
2023/01/15 09:06:12;;;;;;;3.15;2.30;;;7.90;99.90;;;;;;5040146;28;20030;-79
2023/01/15 09:08:38;;;;;;;4.05;2.80;;;7.90;99.90;;;;;;5045906;28;20051;-79
2023/01/15 09:11:08;;;;;;;4.50;2.75;;;7.90;99.90;;;;;;5049006;28;20040;-79
2023/01/15 09:13:36;;;;;;;3.13;2.13;;;7.90;99.90;;;;;;5050595;28;20075;-79
2023/01/15 09:16:04;;;;;;;3.40;2.28;;;8.00;99.90;;;;;;5056970;28;20029;-79
2023/01/15 09:18:31;;;;;;;2.85;2.13;;;8.00;99.90;;;;;;5055593;28;20028;-79
2023/01/15 09:20:57;;;;;;;2.45;1.90;;;8.10;99.90;;;;;;5056977;28;20051;-79
2023/01/15 09:23:23;;;;;;;2.58;1.77;;;8.20;99.90;;;;;;5056791;28;20490;-79
2023/01/15 09:25:53;;;;;;;3.78;2.58;;;8.20;99.90;;;;;;5055999;28;20029;-79
2023/01/15 09:28:19;;;;;;;6.45;4.35;;;8.30;99.90;;;;;;5054382;28;20021;-79
2023/01/15 09:30:44;;;;;;;6.07;3.85;;;8.30;99.90;;;;;;5055629;28;20579;-79
2023/01/15 09:33:10;;;;;;;4.18;2.97;;;8.20;99.90;;;;;;5056947;28;20021;-79
2023/01/15 09:35:36;;;;;;;6.28;2.95;;;8.20;99.90;;;;;;5049059;28;20124;-79
2023/01/15 09:38:02;;;;;;;6.82;4.60;;;8.10;99.90;;;;;;5056751;28;20100;-79
2023/01/15 09:40:35;;;;;;;5.88;3.92;;;8.00;99.90;;;;;;5055733;28;20048;-79
2023/01/15 09:43:46;;;;;;;4.40;3.20;;;7.90;99.90;;;;;;5056488;28;20025;-80
2023/01/15 09:46:19;;;;;;;3.65;2.47;;;7.90;99.90;;;;;;5051957;28;20086;-79
2023/01/15 09:49:07;;;;;;;4.75;2.30;;;7.80;99.90;;;;;;5044607;28;20072;-80
2023/01/15 09:51:47;;;;;;;4.75;2.10;;;7.70;99.90;;;;;;5053864;28;20033;-80
2023/01/15 09:54:22;;;;;;;2.45;1.40;;;7.70;99.90;;;;;;5054074;28;20151;-80
2023/01/15 09:56:48;;;;;;;3.33;1.30;;;7.60;99.90;;;;;;5045376;28;20144;-80
2023/01/15 09:59:36;;;;;;;3.63;1.13;;;7.60;99.90;;;;;;5038493;28;20035;-80
2023/01/15 10:02:18;;;;;;;2.00;0.90;;;7.50;99.90;;;;;;5054185;28;20064;-80
2023/01/15 10:04:48;;;;;;;1.10;0.73;;;7.50;99.90;;;;;;5055923;28;20036;-80
2023/01/15 10:07:35;;;;;;;2.08;0.98;;;7.60;99.90;;;;;;5047521;28;20116;-80
2023/01/15 10:10:09;;;;;;;1.73;0.80;;;7.50;99.90;;;;;;5031325;28;20033;-80
2023/01/15 10:12:41;;;;;;;1.10;0.75;;;7.60;99.90;;;;;;5033901;28;20028;-80
2023/01/15 10:15:36;;;;;;;1.08;0.77;;;7.60;99.90;;;;;;5050833;28;20025;-80
2023/01/15 10:18:02;;;;;;;1.48;0.90;;;7.60;99.90;;;;;;5040075;28;20033;-80
2023/01/15 10:20:43;;;;;;;1.67;1.13;;;7.60;99.90;;;;;;5051600;28;20025;-80
2023/01/15 10:23:29;;;;;;;3.60;1.35;;;7.60;99.90;;;;;;5038531;28;20377;-80
2023/01/15 10:26:10;;;;;;;2.15;1.58;;;7.60;99.90;;;;;;5051377;28;20055;-80
2023/01/15 10:28:51;;;;;;;2.85;1.90;;;7.60;99.90;;;;;;5052173;28;20048;-79
2023/01/15 10:31:23;;;;;;;2.65;1.70;;;7.70;99.90;;;;;;5052857;28;20037;-79
2023/01/15 10:34:13;;;;;;;2.30;1.80;;;7.70;99.90;;;;;;5047502;28;20025;-79
2023/01/15 10:36:51;;;;;;;2.00;1.77;;;7.80;99.90;;;;;;5050784;28;20040;-79
2023/01/15 10:39:23;;;;;;;2.13;1.52;;;7.90;99.90;;;;;;5041627;28;20017;-79
2023/01/15 10:41:55;;;;;;;4.88;1.70;;;8.00;99.90;;;;;;5050846;28;20033;-79
2023/01/15 10:44:33;;;;;;;2.17;1.58;;;8.10;99.90;;;;;;5037919;28;20284;-80
2023/01/15 10:47:01;;;;;;;2.90;1.65;;;8.10;99.90;;;;;;5037617;28;20032;-79
2023/01/15 10:49:29;;;;;;;3.55;1.70;;;8.20;99.90;;;;;;5048349;28;20037;-79
2023/01/15 10:52:04;;;;;;;2.78;1.90;;;8.20;99.90;;;;;;5032934;28;20029;-79
2023/01/15 10:54:41;;;;;;;3.55;2.00;;;8.20;99.90;;;;;;5032503;28;20048;-80
2023/01/15 10:57:59;;;;;;;8.10;4.28;;;8.20;99.90;;;;;;5041548;28;20017;-79
2023/01/15 11:00:25;;;;;;;7.63;5.32;;;8.20;99.90;;;;;;5043093;28;20037;-79
2023/01/15 11:03:07;;;;;;;11.02;7.47;;;8.10;99.90;;;;;;5021704;28;20125;-80
2023/01/15 11:05:34;;;;;;;11.57;7.13;;;8.10;99.90;;;;;;5013103;28;20025;-79
2023/01/15 11:08:04;;;;;;;12.55;8.02;;;8.20;99.90;;;;;;5003057;28;20129;-79
2023/01/15 11:10:31;;;;;;;10.15;6.25;;;8.30;99.90;;;;;;5030060;28;20026;-79
2023/01/15 11:19:35;;;;;;;11.15;7.72;;;8.50;99.90;;;;;;5018074;28;20048;-80
2023/01/15 11:21:40;;;;;;;13.55;7.10;;;8.60;99.90;;;;;;5029192;28;20033;-79
2023/01/15 11:24:15;;;;;;;12.40;5.43;;;8.60;99.90;;;;;;5029739;28;20056;-79
2023/01/15 11:26:44;;;;;;;8.45;4.93;;;8.60;99.90;;;;;;5029477;28;20029;-79
2023/01/15 11:29:39;;;;;;;8.93;4.65;;;8.70;99.90;;;;;;5027881;28;20041;-79
2023/01/15 11:32:22;;;;;;;9.82;4.50;;;8.80;99.90;;;;;;4991277;28;20037;-79
2023/01/15 11:34:56;;;;;;;10.70;4.70;;;8.80;99.90;;;;;;5024935;28;20128;-79
2023/01/15 11:37:22;;;;;;;7.57;4.05;;;8.90;99.90;;;;;;5057599;28;20048;-79
2023/01/15 11:40:06;;;;;;;5.18;3.50;;;8.90;99.90;;;;;;5051123;28;20079;-79
2023/01/15 11:51:09;;;;;;;7.40;3.85;;;9.20;99.90;;;;;;5050561;28;20032;-79
2023/01/15 11:53:59;;;;;;;10.15;5.05;;;9.30;99.90;;;;;;5051176;28;20502;-79
2023/01/15 11:56:27;;;;;;;6.88;4.05;;;9.30;99.90;;;;;;5038226;28;20064;-79
2023/01/15 11:59:00;;;;;;;8.90;4.53;;;9.30;99.90;;;;;;5050213;28;20041;-79
2023/01/15 12:01:33;;;;;;;9.45;4.50;;;9.30;99.90;;;;;;5050685;28;20020;-79
2023/01/15 12:04:25;;;;;;;7.60;3.92;;;9.40;99.90;;;;;;5034592;28;20029;-79
2023/01/15 12:06:50;;;;;;;;;;;9.30;99.90;;;;;;5044607;28;20017;-77
2023/01/15 12:09:25;;;;;;;10.82;5.45;;;9.30;99.90;;;;;;5046515;28;20003;-79
2023/01/15 12:12:06;;;;;;;11.93;7.53;;;9.30;99.90;;;;;;5045023;28;20021;-79
2023/01/15 12:14:53;;;;;;;11.18;6.43;;;9.30;99.90;;;;;;5050448;28;20509;-79
2023/01/15 12:17:22;;;;;;;11.25;5.80;;;9.30;99.90;;;;;;5051121;28;20033;-79
2023/01/15 12:19:50;;;;;;;10.60;4.82;;;9.40;99.90;;;;;;5037431;28;20021;-79
2023/01/15 12:22:53;;;;;;;9.98;5.55;;;9.40;99.90;;;;;;5037344;28;20302;-79
2023/01/15 12:25:34;;;;;;;10.05;4.75;;;9.50;99.90;;;;;;5050795;28;20029;-79
2023/01/15 12:28:01;;;;;;;16.07;9.07;;;9.60;99.90;;;;;;5046603;28;20025;-79
2023/01/15 12:30:37;;;;;;;19.02;10.23;;;9.60;99.90;;;;;;5046432;28;20124;-79
2023/01/15 12:33:16;;;;;;;16.08;8.45;;;9.60;99.90;;;;;;5047212;28;20075;-78
2023/01/15 12:35:47;;;;;;;12.20;7.18;;;9.60;99.90;;;;;;5043623;28;20017;-78
2023/01/15 12:38:19;;;;;;;;;;;9.60;99.90;;;;;;5048937;28;20036;-78
2023/01/15 12:40:52;;;;;;;9.05;5.57;;;9.60;99.90;;;;;;5042657;28;19908;-78
2023/01/15 12:46:15;;;;;;;7.82;5.72;;;9.40;99.90;;;;;;5050597;28;20044;-79
2023/01/15 12:48:55;;;;;;;9.18;5.68;;;9.40;99.90;;;;;;5050068;28;20096;-78
2023/01/15 12:51:29;;;;;;;7.95;5.07;;;9.30;99.90;;;;;;5044722;28;20052;-78
2023/01/15 12:54:03;;;;;;;6.93;4.65;;;9.30;99.90;;;;;;5036203;28;20017;-78
2023/01/15 12:57:02;;;;;;;8.10;5.00;;;9.20;99.90;;;;;;5038316;28;20033;-78
2023/01/15 12:59:40;;;;;;;7.30;4.20;;;9.20;99.90;;;;;;5047758;28;20029;-78
2023/01/15 13:02:34;;;;;;;8.60;4.30;;;9.10;99.90;;;;;;5031339;28;20469;-78
2023/01/15 13:05:24;;;;;;;7.47;4.45;;;9.20;99.90;;;;;;5035009;28;20549;-78
2023/01/15 13:08:03;;;;;;;6.57;4.13;;;9.20;99.90;;;;;;5050848;28;20033;-78
2023/01/15 13:10:34;;;;;;;6.20;4.03;;;9.20;99.90;;;;;;5046500;28;20099;-78
2023/01/15 13:13:18;;;;;;;8.90;4.30;;;9.20;99.90;;;;;;5046190;28;20033;-79
2023/01/15 13:16:10;;;;;;;6.22;4.22;;;9.20;99.90;;;;;;5047372;28;20593;-79
2023/01/15 13:18:46;;;;;;;5.85;3.72;;;9.20;99.90;;;;;;5047044;28;20028;-78
2023/01/15 13:21:17;;;;;;;5.00;3.20;;;9.20;99.90;;;;;;5031192;28;20118;-78
2023/01/15 13:24:01;;;;;;;5.80;3.33;;;9.20;99.90;;;;;;5047984;28;20045;-78
2023/01/15 13:27:03;;;;;;;8.20;3.80;;;9.30;99.90;;;;;;5024989;28;20136;-78
2023/01/15 13:29:43;;;;;;;6.20;2.75;;;9.30;99.90;;;;;;5047525;28;20053;-79
2023/01/15 13:32:24;;;;;;;8.40;4.13;;;9.30;99.90;;;;;;5047258;28;20076;-78
2023/01/15 13:35:07;;;;;;;7.78;3.22;;;9.30;99.90;;;;;;5030815;28;20079;-78
2023/01/15 13:37:55;;;;;;;7.10;3.28;;;9.30;99.90;;;;;;5043165;28;20119;-78
2023/01/15 13:40:27;;;;;;;7.47;3.65;;;9.40;99.90;;;;;;5042690;28;20025;-78
2023/01/15 13:42:54;;;;;;;5.88;3.30;;;9.30;99.90;;;;;;5053506;28;20074;-78
2023/01/15 13:45:37;;;;;;;5.63;3.60;;;9.20;99.90;;;;;;5053363;28;20028;-78
2023/01/15 13:48:26;;;;;;;6.68;3.13;;;9.20;99.90;;;;;;5053733;28;20483;-78
2023/01/15 13:50:57;;;;;;;7.20;2.90;;;9.10;99.90;;;;;;5053168;28;20055;-78
2023/01/15 13:53:29;;;;;;;5.40;2.28;;;8.80;99.90;;;;;;5053307;28;20033;-78
2023/01/15 13:56:04;;;;;;;3.13;1.73;;;8.70;99.90;;;;;;5053102;28;20049;-78
2023/01/15 13:58:36;;;;;;;3.22;1.70;;;8.60;99.90;;;;;;5053221;28;20029;-78
2023/01/15 14:01:19;;;;;;;2.35;1.67;;;8.60;99.90;;;;;;5056005;28;20037;-78
2023/01/15 14:04:00;;;;;;;4.18;2.00;;;8.60;99.90;;;;;;5053339;28;20108;-78